Terminal Aerodrome Forecast
Issued by NWS

Current Version | Previous Version | Graphics & Text | Print | Product List | Glossary On
Versions: 1 2 3 4 5 6 7 8 9 10 11 12 13 14 15 16 17 18 19 20 21
000
FTUS41 KILN 220537
TAFLUK
TAF
KLUK 220537Z 2206/2306 31008KT P6SM FEW040
     FM220800 32006KT P6SM SCT050
     FM221500 33008KT P6SM FEW050 SCT250
     FM222300 VRB04KT P6SM SCT250=

USA.gov is the U.S. government's official web portal to all federal, state and local government web resources and services.